createdAt,value
2022-08-05T00:01:36.587Z,58.90
2022-08-05T00:04:19.977Z,58.40
2022-08-05T00:06:47.536Z,58.30
2022-08-05T00:09:24.055Z,58.80
2022-08-05T00:11:56.192Z,59.40
2022-08-05T00:14:29.058Z,60.20
2022-08-05T00:16:56.382Z,59.60
2022-08-05T00:19:23.246Z,59.80
2022-08-05T00:21:56.027Z,59.90
2022-08-05T00:24:24.389Z,60.00
2022-08-05T00:26:53.038Z,60.00
2022-08-05T00:29:25.678Z,60.20
2022-08-05T00:32:12.382Z,60.60
2022-08-05T00:35:04.511Z,60.70
2022-08-05T00:37:51.267Z,60.60
2022-08-05T00:40:27.977Z,60.80
2022-08-05T00:43:00.119Z,60.80
2022-08-05T00:45:38.886Z,61.20
2022-08-05T00:48:11.336Z,61.30
2022-08-05T00:50:41.281Z,61.40
2022-08-05T00:53:09.489Z,61.60
2022-08-05T00:55:53.359Z,62.10
2022-08-05T00:58:20.742Z,61.60
2022-08-05T01:00:59.255Z,61.70
2022-08-05T01:03:31.079Z,61.80
2022-08-05T01:06:00.862Z,61.70
2022-08-05T01:08:40.761Z,61.80
2022-08-05T01:11:22.248Z,61.80
2022-08-05T01:13:59.610Z,62.40
2022-08-05T01:16:44.125Z,60.90
2022-08-05T01:19:36.774Z,61.70
2022-08-05T01:22:28.093Z,61.90
2022-08-05T01:25:17.137Z,61.80
2022-08-05T01:28:10.542Z,61.90
2022-08-05T01:30:50.674Z,62.20
2022-08-05T01:33:35.417Z,61.90
2022-08-05T01:36:12.943Z,62.00
2022-08-05T01:38:46.395Z,62.10
2022-08-05T01:41:21.728Z,62.10
2022-08-05T01:43:50.527Z,62.30
2022-08-05T01:46:42.417Z,62.30
2022-08-05T01:49:23.800Z,62.40
2022-08-05T01:51:58.428Z,62.80
2022-08-05T01:54:46.509Z,63.10
2022-08-05T01:58:10.465Z,63.60
2022-08-05T02:00:12.700Z,63.60
2022-08-05T02:03:03.717Z,63.50
2022-08-05T02:05:42.638Z,63.80
2022-08-05T02:08:09.489Z,63.90
2022-08-05T02:10:52.234Z,63.70
2022-08-05T02:13:36.494Z,64.50
2022-08-05T02:16:27.736Z,65.50
2022-08-05T02:19:11.618Z,64.30
2022-08-05T02:21:49.253Z,65.20
2022-08-05T02:24:22.962Z,65.10
2022-08-05T02:26:56.418Z,65.30
2022-08-05T02:29:59.136Z,65.40
2022-08-05T02:32:29.414Z,65.10
2022-08-05T02:35:02.138Z,65.10
2022-08-05T02:37:47.865Z,65.10
2022-08-05T02:40:26.092Z,65.10
2022-08-05T02:42:56.256Z,65.40
2022-08-05T02:45:28.776Z,65.30
2022-08-05T02:48:17.181Z,65.20
2022-08-05T02:50:51.687Z,64.80
2022-08-05T02:53:20.692Z,64.80
2022-08-05T02:55:54.766Z,64.60
2022-08-05T02:58:30.021Z,64.80
2022-08-05T03:01:00.653Z,65.10
2022-08-05T03:03:34.043Z,65.40
2022-08-05T03:06:53.705Z,65.20
2022-08-05T03:08:49.496Z,64.30
2022-08-05T03:11:54.424Z,64.70
2022-08-05T03:14:13.379Z,65.10
2022-08-05T03:16:44.610Z,65.30
2022-08-05T03:19:17.226Z,65.70
2022-08-05T03:21:57.969Z,65.90
2022-08-05T03:24:30.040Z,66.70
2022-08-05T03:27:01.053Z,66.10
2022-08-05T03:29:45.565Z,66.30
2022-08-05T03:32:17.249Z,66.10
2022-08-05T03:34:51.196Z,66.40
2022-08-05T03:37:18.826Z,66.70
2022-08-05T03:40:01.512Z,66.20
2022-08-05T03:42:51.449Z,67.00
2022-08-05T03:45:21.611Z,66.20
2022-08-05T03:47:50.029Z,66.40
2022-08-05T03:50:19.781Z,66.50
2022-08-05T03:55:11.375Z,66.80
2022-08-05T03:56:10.270Z,67.60
2022-08-05T03:58:51.131Z,67.20
2022-08-05T04:01:26.484Z,66.40
2022-08-05T04:04:09.960Z,66.50
2022-08-05T04:06:51.378Z,66.70
2022-08-05T04:09:26.513Z,66.80
2022-08-05T04:11:56.858Z,66.60
2022-08-05T04:14:31.329Z,66.70
2022-08-05T04:17:00.133Z,66.40
2022-08-05T04:19:28.638Z,66.40
2022-08-05T04:22:09.046Z,66.30
2022-08-05T04:24:44.059Z,66.30
2022-08-05T04:27:16.174Z,66.50
2022-08-05T04:29:45.880Z,65.90
2022-08-05T04:32:19.962Z,65.60
2022-08-05T04:34:57.498Z,65.60
2022-08-05T04:38:00.708Z,65.70
2022-08-05T04:40:11.735Z,65.70
2022-08-05T04:42:38.402Z,65.90
2022-08-05T04:45:08.772Z,66.00
2022-08-05T04:47:42.904Z,66.10
2022-08-05T04:50:14.193Z,66.00
2022-08-05T04:53:01.688Z,66.20
2022-08-05T04:56:32.203Z,66.00
2022-08-05T04:58:17.731Z,66.20
2022-08-05T05:00:50.638Z,66.30
2022-08-05T05:03:20.377Z,66.30
2022-08-05T05:06:40.752Z,66.40
2022-08-05T05:08:36.162Z,66.40
2022-08-05T05:11:10.637Z,66.20
2022-08-05T05:13:43.194Z,66.20
2022-08-05T05:16:10.679Z,66.20
2022-08-05T05:18:38.412Z,66.30
2022-08-05T05:21:05.566Z,66.10
2022-08-05T05:24:02.432Z,66.10
2022-08-05T05:26:19.479Z,66.20
2022-08-05T05:28:54.966Z,66.00
2022-08-05T05:31:23.857Z,66.00
2022-08-05T05:33:59.485Z,66.00
2022-08-05T05:36:31.801Z,66.00
2022-08-05T05:38:58.614Z,65.90
2022-08-05T05:41:25.753Z,65.90
2022-08-05T05:44:37.007Z,66.00
2022-08-05T05:46:54.332Z,65.90
2022-08-05T05:49:23.764Z,65.80
2022-08-05T05:51:50.897Z,65.80
2022-08-05T05:54:20.571Z,66.00
2022-08-05T05:56:47.622Z,66.20
2022-08-05T05:59:14.306Z,66.20
2022-08-05T06:01:57.093Z,66.20
2022-08-05T06:04:24.839Z,66.30
2022-08-05T06:06:51.577Z,66.10
2022-08-05T06:09:25.813Z,66.00
2022-08-05T06:12:03.255Z,65.90
2022-08-05T06:14:31.553Z,65.90
2022-08-05T06:17:01.997Z,65.80
2022-08-05T06:19:56.733Z,66.00
2022-08-05T06:22:33.798Z,66.00
2022-08-05T06:25:01.066Z,65.60
2022-08-05T06:28:10.813Z,65.30
2022-08-05T06:30:34.390Z,65.40
2022-08-05T06:33:01.473Z,65.50
2022-08-05T06:36:07.538Z,65.20
2022-08-05T06:38:15.018Z,65.00
2022-08-05T06:40:44.675Z,64.70
2022-08-05T06:43:58.296Z,64.60
2022-08-05T06:46:04.111Z,64.80
2022-08-05T06:48:52.801Z,64.50
2022-08-05T06:51:29.057Z,64.40
2022-08-05T06:54:00.339Z,64.30
2022-08-05T06:56:29.577Z,64.20
2022-08-05T06:58:58.732Z,64.40
2022-08-05T07:01:27.752Z,65.40
2022-08-05T07:04:01.418Z,64.60
2022-08-05T07:06:29.179Z,64.80
2022-08-05T07:08:59.163Z,64.90
2022-08-05T07:11:28.492Z,65.60
2022-08-05T07:14:20.074Z,65.10
2022-08-05T07:18:00.373Z,65.00
2022-08-05T07:22:28.682Z,65.20
2022-08-05T07:25:21.975Z,65.30
2022-08-05T07:27:58.658Z,65.80
2022-08-05T07:30:31.944Z,65.30
2022-08-05T07:33:08.893Z,65.30
2022-08-05T07:36:01.748Z,65.30
2022-08-05T07:38:33.599Z,65.10
2022-08-05T07:42:07.277Z,64.90
2022-08-05T07:43:56.192Z,65.00
2022-08-05T07:46:26.000Z,64.80
2022-08-05T07:49:04.410Z,64.70
2022-08-05T07:51:48.984Z,64.50
2022-08-05T07:54:26.586Z,65.00
2022-08-05T07:57:01.749Z,65.10
2022-08-05T07:59:41.994Z,64.70
2022-08-05T08:02:16.417Z,64.30
2022-08-05T08:04:46.303Z,64.30
2022-08-05T08:07:13.971Z,64.20
2022-08-05T08:09:42.041Z,64.10
2022-08-05T08:12:19.230Z,64.10
2022-08-05T08:14:55.868Z,64.00
2022-08-05T08:17:27.941Z,64.00
2022-08-05T08:20:21.547Z,64.00
2022-08-05T08:22:43.945Z,64.40
2022-08-05T08:25:16.420Z,64.40
2022-08-05T08:27:47.523Z,64.70
2022-08-05T08:30:29.580Z,64.20
2022-08-05T08:33:13.745Z,64.20
2022-08-05T08:35:52.786Z,64.30
2022-08-05T08:38:35.273Z,64.10
2022-08-05T08:41:09.892Z,63.70
2022-08-05T08:45:23.303Z,63.80
2022-08-05T08:46:27.880Z,63.80
2022-08-05T08:49:06.196Z,63.70
2022-08-05T08:52:02.956Z,63.50
2022-08-05T08:54:32.547Z,63.50
2022-08-05T08:57:00.347Z,63.10
2022-08-05T08:59:33.558Z,63.10
2022-08-05T09:02:04.255Z,63.20
2022-08-05T09:04:58.385Z,63.10
2022-08-05T09:07:29.081Z,63.00
2022-08-05T09:10:06.914Z,62.30
2022-08-05T09:12:34.997Z,62.20
2022-08-05T09:15:06.604Z,61.30
2022-08-05T09:17:42.927Z,61.20
2022-08-05T09:20:20.862Z,61.30
2022-08-05T09:23:19.176Z,60.40
2022-08-05T09:26:01.874Z,59.80
2022-08-05T09:28:33.485Z,59.50
2022-08-05T09:31:23.255Z,59.30
2022-08-05T09:33:53.679Z,59.30
2022-08-05T09:36:21.070Z,59.00
2022-08-05T09:39:03.667Z,58.40
2022-08-05T09:42:04.310Z,57.90
2022-08-05T09:44:43.369Z,57.60
2022-08-05T09:47:20.652Z,58.50
2022-08-05T09:50:01.695Z,57.60
2022-08-05T09:52:32.978Z,58.10
2022-08-05T09:55:55.198Z,58.10
2022-08-05T09:57:54.539Z,57.90
2022-08-05T10:00:25.802Z,57.60
2022-08-05T10:02:57.969Z,58.00
2022-08-05T10:05:27.970Z,57.90
2022-08-05T10:08:34.770Z,57.70
2022-08-05T10:10:44.445Z,58.20
2022-08-05T10:13:12.487Z,58.50
2022-08-05T10:15:41.687Z,57.60
2022-08-05T10:18:16.716Z,56.60
2022-08-05T10:20:53.224Z,56.90
2022-08-05T10:23:55.938Z,56.40
2022-08-05T10:26:19.938Z,56.50
2022-08-05T10:28:58.485Z,56.00
2022-08-05T10:32:53.354Z,55.70
2022-08-05T10:34:12.070Z,56.00
2022-08-05T10:36:41.130Z,56.10
2022-08-05T10:39:15.190Z,54.60
2022-08-05T10:42:07.734Z,55.00
2022-08-05T10:44:45.196Z,54.40
2022-08-05T10:47:26.788Z,53.60
2022-08-05T10:50:20.568Z,54.30
2022-08-05T10:53:00.140Z,53.20
2022-08-05T10:55:27.629Z,53.90
2022-08-05T10:58:11.324Z,53.20
2022-08-05T11:00:42.071Z,53.30
2022-08-05T11:03:24.317Z,53.80
2022-08-05T11:06:08.555Z,53.90
2022-08-05T11:09:10.493Z,54.30
2022-08-05T11:11:44.821Z,54.60
2022-08-05T11:17:59.161Z,55.30
2022-08-05T11:20:43.730Z,55.60
2022-08-05T11:23:49.871Z,55.70
2022-08-05T11:26:28.815Z,55.00
2022-08-05T11:29:11.709Z,54.70
2022-08-05T11:31:54.328Z,53.80
2022-08-05T11:34:47.516Z,54.20
2022-08-05T11:38:30.911Z,54.10
2022-08-05T11:41:34.329Z,54.80
2022-08-05T11:44:05.903Z,54.40
2022-08-05T11:47:09.361Z,53.90
2022-08-05T11:49:34.998Z,53.50
2022-08-05T11:52:11.264Z,53.80
2022-08-05T11:54:40.335Z,53.60
2022-08-05T11:57:24.161Z,53.90
2022-08-05T11:59:51.717Z,53.90
2022-08-05T12:02:31.868Z,53.80
2022-08-05T12:05:07.279Z,53.40
2022-08-05T12:08:08.133Z,52.80
2022-08-05T12:10:38.638Z,52.50
2022-08-05T12:13:27.971Z,51.70
2022-08-05T12:16:14.418Z,50.60
2022-08-05T12:18:52.406Z,50.60
2022-08-05T12:21:30.257Z,50.30
2022-08-05T12:24:07.770Z,49.60
2022-08-05T12:26:39.385Z,49.90
2022-08-05T12:29:25.441Z,49.20
2022-08-05T12:31:57.567Z,49.80
2022-08-05T12:34:31.552Z,50.90
2022-08-05T12:37:06.380Z,51.70
2022-08-05T12:39:37.186Z,52.20
2022-08-05T12:42:14.887Z,52.90
2022-08-05T12:44:44.377Z,53.70
2022-08-05T12:47:12.279Z,54.50
2022-08-05T12:50:03.284Z,55.60
2022-08-05T12:52:38.754Z,55.10
2022-08-05T12:55:23.785Z,55.80
2022-08-05T12:58:51.273Z,55.50
2022-08-05T13:02:00.419Z,55.30
2022-08-05T13:03:34.530Z,54.70
2022-08-05T13:06:08.441Z,54.00
2022-08-05T13:08:38.708Z,52.50
2022-08-05T13:11:07.990Z,52.40
2022-08-05T13:14:06.516Z,52.10
2022-08-05T13:16:27.702Z,51.60
2022-08-05T13:18:57.855Z,51.20
2022-08-05T13:21:28.160Z,50.70
2022-08-05T13:24:09.062Z,50.00
2022-08-05T13:26:36.001Z,49.20
2022-08-05T13:29:05.627Z,47.80
2022-08-05T13:31:34.093Z,47.30
2022-08-05T13:34:26.227Z,47.70
2022-08-05T13:37:03.974Z,46.90
2022-08-05T13:40:13.591Z,46.50
2022-08-05T13:42:21.885Z,46.30
2022-08-05T13:44:53.865Z,45.90
2022-08-05T13:47:35.258Z,43.80
2022-08-05T13:50:22.932Z,42.20
2022-08-05T13:52:50.784Z,41.60
2022-08-05T13:55:40.929Z,41.40
2022-08-05T13:58:08.083Z,40.80
2022-08-05T14:00:37.819Z,41.50
2022-08-05T14:03:04.583Z,41.10
2022-08-05T14:06:04.977Z,42.00
2022-08-05T14:08:27.644Z,42.50
2022-08-05T14:11:03.070Z,40.60
2022-08-05T14:13:48.268Z,38.00
2022-08-05T14:16:19.272Z,38.00
2022-08-05T14:18:49.076Z,37.20
2022-08-05T14:21:16.386Z,36.60
2022-08-05T14:24:05.505Z,34.80
2022-08-05T14:26:36.995Z,32.50
2022-08-05T14:29:16.347Z,31.60
2022-08-05T14:32:03.158Z,31.50
2022-08-05T14:34:35.427Z,31.40
2022-08-05T14:37:04.106Z,31.70
2022-08-05T14:39:49.213Z,32.20
2022-08-05T14:42:21.109Z,32.60
2022-08-05T14:44:48.973Z,33.00
2022-08-05T14:47:15.830Z,33.40
2022-08-05T14:49:56.267Z,34.00
2022-08-05T14:52:50.303Z,34.40
2022-08-05T14:55:15.368Z,34.60
2022-08-05T14:57:56.037Z,34.80
2022-08-05T15:00:27.872Z,35.10
2022-08-05T15:02:55.420Z,35.50
2022-08-05T15:05:22.297Z,36.10
2022-08-05T15:08:05.736Z,35.90
2022-08-05T15:10:43.169Z,36.50
2022-08-05T15:13:12.829Z,37.50
2022-08-05T15:15:55.881Z,37.40
2022-08-05T15:18:25.817Z,37.40
2022-08-05T15:20:52.480Z,36.10
2022-08-05T15:23:19.327Z,35.60
2022-08-05T15:25:52.906Z,35.00
2022-08-05T15:28:23.066Z,34.40
2022-08-05T15:30:55.249Z,33.60
2022-08-05T15:34:04.258Z,31.90
2022-08-05T15:36:17.237Z,31.00
2022-08-05T15:40:41.353Z,30.40
2022-08-05T15:41:55.721Z,30.60
2022-08-05T15:44:34.236Z,30.00
2022-08-05T15:47:05.982Z,30.30
2022-08-05T15:49:47.921Z,29.90
2022-08-05T15:52:52.024Z,30.30
2022-08-05T15:55:16.564Z,31.00
2022-08-05T15:57:48.995Z,30.30
2022-08-05T16:00:26.285Z,29.30
2022-08-05T16:03:07.301Z,29.30
2022-08-05T16:05:34.122Z,29.10
2022-08-05T16:08:03.511Z,29.00
2022-08-05T16:10:33.048Z,28.40
2022-08-05T16:13:02.290Z,28.10
2022-08-05T16:15:32.387Z,27.80
2022-08-05T16:17:59.490Z,27.70
2022-08-05T16:20:27.940Z,27.20
2022-08-05T16:22:57.565Z,26.90
2022-08-05T16:25:32.446Z,26.60
2022-08-05T16:28:06.505Z,25.90
2022-08-05T16:30:41.483Z,25.90
2022-08-05T16:33:08.373Z,25.30
2022-08-05T16:35:42.405Z,25.50
2022-08-05T16:38:18.777Z,25.20
2022-08-05T16:41:00.902Z,25.10
2022-08-05T16:43:33.336Z,25.00
2022-08-05T16:46:06.296Z,24.90
2022-08-05T16:48:39.115Z,24.60
2022-08-05T16:51:10.052Z,24.70
2022-08-05T16:54:03.279Z,24.50
2022-08-05T16:56:36.793Z,24.40
2022-08-05T16:59:14.601Z,24.80
2022-08-05T17:01:54.365Z,25.10
2022-08-05T17:04:26.430Z,25.40
2022-08-05T17:06:55.227Z,25.80
2022-08-05T17:09:23.143Z,25.70
2022-08-05T17:11:59.268Z,25.40
2022-08-05T17:14:36.742Z,25.10
2022-08-05T17:17:06.439Z,25.20
2022-08-05T17:19:36.084Z,24.80
2022-08-05T17:22:04.511Z,25.60
2022-08-05T17:24:38.968Z,25.00
2022-08-05T17:27:13.050Z,25.20
2022-08-05T17:29:48.012Z,25.80
2022-08-05T17:32:21.802Z,26.00
2022-08-05T17:34:58.208Z,25.90
2022-08-05T17:37:40.824Z,25.80
2022-08-05T17:40:12.367Z,25.90
2022-08-05T17:42:41.830Z,25.70
2022-08-05T17:45:21.842Z,25.70
2022-08-05T17:47:55.809Z,25.80
2022-08-05T17:50:29.989Z,25.90
2022-08-05T17:52:59.321Z,25.90
2022-08-05T17:55:34.547Z,26.30
2022-08-05T17:58:11.106Z,26.10
2022-08-05T18:00:47.465Z,25.90
2022-08-05T18:03:58.678Z,25.70
2022-08-05T18:06:12.215Z,25.80
2022-08-05T18:08:44.238Z,25.90
2022-08-05T18:11:23.145Z,25.90
2022-08-05T18:13:54.184Z,26.10
2022-08-05T18:16:22.690Z,26.30
2022-08-05T18:18:50.845Z,26.40
2022-08-05T18:21:19.674Z,26.70
2022-08-05T18:23:54.460Z,26.90
2022-08-05T18:26:29.594Z,27.00
2022-08-05T18:29:02.413Z,27.20
2022-08-05T18:31:35.346Z,27.60
2022-08-05T18:34:06.175Z,27.80
2022-08-05T18:36:43.795Z,28.10
2022-08-05T18:39:41.877Z,28.50
2022-08-05T18:42:04.789Z,28.70
2022-08-05T18:44:51.523Z,29.30
2022-08-05T18:47:26.677Z,29.70
2022-08-05T18:50:12.822Z,30.00
2022-08-05T18:52:50.813Z,30.40
2022-08-05T18:55:27.600Z,30.80
2022-08-05T18:58:03.301Z,31.30
2022-08-05T19:00:30.322Z,31.70
2022-08-05T19:03:04.079Z,32.10
2022-08-05T19:06:12.266Z,32.60
2022-08-05T19:08:21.860Z,33.10
2022-08-05T19:10:58.470Z,33.40
2022-08-05T19:13:26.114Z,33.90
2022-08-05T19:15:58.902Z,34.30
2022-08-05T19:18:27.051Z,34.50
2022-08-05T19:20:54.487Z,34.80
2022-08-05T19:24:05.399Z,35.10
2022-08-05T19:26:14.466Z,35.50
2022-08-05T19:28:46.566Z,35.80
2022-08-05T19:31:19.505Z,36.10
2022-08-05T19:33:56.691Z,36.60
2022-08-05T19:36:25.635Z,37.50
2022-08-05T19:38:54.923Z,37.10
2022-08-05T19:41:58.549Z,37.50
2022-08-05T19:44:12.935Z,37.50
2022-08-05T19:46:40.601Z,37.90
2022-08-05T19:49:08.080Z,38.20
2022-08-05T19:52:05.759Z,38.40
2022-08-05T19:54:30.996Z,38.40
2022-08-05T19:57:06.259Z,38.50
2022-08-05T20:00:01.047Z,38.80
2022-08-05T20:02:23.057Z,38.80
2022-08-05T20:04:49.941Z,39.50
2022-08-05T20:07:46.744Z,39.10
2022-08-05T20:10:13.317Z,39.30
2022-08-05T20:12:46.319Z,39.50
2022-08-05T20:15:23.421Z,39.60
2022-08-05T20:18:10.873Z,40.00
2022-08-05T20:21:00.007Z,39.70
2022-08-05T20:23:40.385Z,39.70
2022-08-05T20:26:16.137Z,39.80
2022-08-05T20:28:49.653Z,39.80
2022-08-05T20:31:21.711Z,40.20
2022-08-05T20:33:55.535Z,40.10
2022-08-05T20:36:24.069Z,40.00
2022-08-05T20:38:54.155Z,40.10
2022-08-05T20:41:27.459Z,40.20
2022-08-05T20:44:18.602Z,40.20
2022-08-05T20:46:47.704Z,40.10
2022-08-05T20:49:14.859Z,40.30
2022-08-05T20:51:54.024Z,40.50
2022-08-05T20:54:21.945Z,40.80
2022-08-05T20:56:51.845Z,40.70
2022-08-05T20:59:26.682Z,41.10
2022-08-05T21:01:57.867Z,40.90
2022-08-05T21:04:27.046Z,41.20
2022-08-05T21:07:02.905Z,41.20
2022-08-05T21:09:29.640Z,41.30
2022-08-05T21:12:10.127Z,41.40
2022-08-05T21:14:46.657Z,41.50
2022-08-05T21:17:19.044Z,41.70
2022-08-05T21:19:50.365Z,41.90
2022-08-05T21:22:23.917Z,41.70
2022-08-05T21:24:55.398Z,41.80
2022-08-05T21:27:28.025Z,42.20
2022-08-05T21:30:09.287Z,42.00
2022-08-05T21:32:46.593Z,42.40
2022-08-05T21:35:18.389Z,42.70
2022-08-05T21:37:59.677Z,43.00
2022-08-05T21:40:26.338Z,43.20
2022-08-05T21:42:56.186Z,43.40
2022-08-05T21:45:51.599Z,43.60
2022-08-05T21:48:15.501Z,43.80
2022-08-05T21:50:54.040Z,43.70
2022-08-05T21:53:27.015Z,43.80
2022-08-05T21:56:04.979Z,44.00
2022-08-05T21:58:42.426Z,44.20
2022-08-05T22:01:24.711Z,44.50
2022-08-05T22:03:53.499Z,44.80
2022-08-05T22:06:35.422Z,45.00
2022-08-05T22:09:15.366Z,45.20
2022-08-05T22:11:52.249Z,45.20
2022-08-05T22:14:35.043Z,45.60
2022-08-05T22:17:09.067Z,45.50
2022-08-05T22:20:00.793Z,45.70
2022-08-05T22:22:29.586Z,46.00
2022-08-05T22:25:18.000Z,46.40
2022-08-05T22:28:09.354Z,46.30
2022-08-05T22:30:44.042Z,46.50
2022-08-05T22:33:55.519Z,46.70
2022-08-05T22:36:14.490Z,46.70
2022-08-05T22:38:48.350Z,47.00
2022-08-05T22:42:04.551Z,47.20
2022-08-05T22:44:07.289Z,47.50
2022-08-05T22:46:34.133Z,47.60
2022-08-05T22:49:23.123Z,47.80
2022-08-05T22:52:07.329Z,48.10
2022-08-05T22:54:48.987Z,48.10
2022-08-05T22:57:17.293Z,48.30
2022-08-05T22:59:53.826Z,48.40
2022-08-05T23:02:31.321Z,48.60
2022-08-05T23:05:01.792Z,48.80
2022-08-05T23:07:44.097Z,48.90
2022-08-05T23:10:13.744Z,49.10
2022-08-05T23:12:43.117Z,49.20
2022-08-05T23:15:13.641Z,49.40
2022-08-05T23:18:00.670Z,49.50
2022-08-05T23:20:30.753Z,49.60
2022-08-05T23:22:58.664Z,49.50
2022-08-05T23:25:53.155Z,49.70
2022-08-05T23:28:20.197Z,49.70
2022-08-05T23:30:53.260Z,49.60
2022-08-05T23:33:26.487Z,49.70
2022-08-05T23:36:10.212Z,49.80
2022-08-05T23:38:37.678Z,49.90
2022-08-05T23:41:04.497Z,50.20
2022-08-05T23:44:04.297Z,50.50
2022-08-05T23:46:21.992Z,50.80
2022-08-05T23:49:00.699Z,51.10
2022-08-05T23:51:54.902Z,50.90
2022-08-05T23:54:34.229Z,51.40
2022-08-05T23:57:04.901Z,51.60
